createdAt,value
2022-09-04T00:02:17.378Z,19.02
2022-09-04T00:04:58.412Z,19.00
2022-09-04T00:07:34.502Z,18.96
2022-09-04T00:10:12.105Z,18.92
2022-09-04T00:13:04.341Z,18.89
2022-09-04T00:15:36.424Z,18.89
2022-09-04T00:18:11.434Z,18.88
2022-09-04T00:20:41.193Z,18.91
2022-09-04T00:23:14.248Z,18.88
2022-09-04T00:25:53.632Z,18.87
2022-09-04T00:28:41.530Z,18.87
2022-09-04T00:31:37.372Z,18.83
2022-09-04T00:34:20.238Z,18.82
2022-09-04T00:36:51.718Z,18.79
2022-09-04T00:39:24.320Z,18.83
2022-09-04T00:41:59.993Z,18.78
2022-09-04T00:44:45.126Z,18.76
2022-09-04T00:47:49.485Z,18.76
2022-09-04T00:50:23.884Z,18.75
2022-09-04T00:53:09.908Z,18.74
2022-09-04T00:56:16.738Z,18.70
2022-09-04T00:59:02.439Z,18.70
2022-09-04T01:01:30.035Z,18.72
2022-09-04T01:04:20.237Z,18.67
2022-09-04T01:07:10.052Z,18.68
2022-09-04T01:09:52.431Z,18.61
2022-09-04T01:12:40.495Z,18.52
2022-09-04T01:15:27.233Z,18.66
2022-09-04T01:18:03.224Z,18.54
2022-09-04T01:21:06.747Z,18.55
2022-09-04T01:24:01.289Z,18.51
2022-09-04T01:26:35.623Z,18.46
2022-09-04T01:29:40.070Z,18.44
2022-09-04T01:32:25.187Z,18.39
2022-09-04T01:35:13.332Z,18.31
2022-09-04T01:38:02.619Z,18.38
2022-09-04T01:40:53.197Z,18.26
2022-09-04T01:43:22.325Z,18.25
2022-09-04T01:46:01.360Z,18.26
2022-09-04T01:49:09.962Z,18.28
2022-09-04T01:52:08.553Z,18.09
2022-09-04T01:54:59.922Z,18.00
2022-09-04T01:57:38.791Z,18.14
2022-09-04T02:00:12.963Z,18.06
2022-09-04T02:03:15.238Z,18.13
2022-09-04T02:05:57.012Z,18.09
2022-09-04T02:08:30.438Z,18.04
2022-09-04T02:11:31.366Z,18.03
2022-09-04T02:14:26.206Z,18.08
2022-09-04T02:17:09.827Z,18.07
2022-09-04T02:19:41.806Z,18.03
2022-09-04T02:22:26.790Z,17.95
2022-09-04T02:25:20.922Z,17.97
2022-09-04T02:28:09.527Z,18.10
2022-09-04T02:31:02.580Z,18.16
2022-09-04T02:33:32.462Z,18.13
2022-09-04T02:36:05.620Z,17.99
2022-09-04T02:38:56.584Z,17.88
2022-09-04T02:41:41.891Z,17.98
2022-09-04T02:44:24.698Z,17.99
2022-09-04T02:47:13.653Z,18.02
2022-09-04T02:50:19.037Z,18.07
2022-09-04T02:53:10.463Z,18.09
2022-09-04T02:55:46.175Z,18.00
2022-09-04T02:58:31.916Z,18.00
2022-09-04T03:01:14.984Z,18.08
2022-09-04T03:03:44.724Z,18.19
2022-09-04T03:06:18.621Z,18.08
2022-09-04T03:08:49.796Z,18.01
2022-09-04T03:11:41.958Z,18.09
2022-09-04T03:14:39.138Z,18.06
2022-09-04T03:17:21.991Z,18.07
2022-09-04T03:20:00.544Z,18.02
2022-09-04T03:22:33.922Z,18.01
2022-09-04T03:25:23.985Z,18.02
2022-09-04T03:27:51.057Z,18.08
2022-09-04T03:30:18.898Z,18.03
2022-09-04T03:33:07.651Z,18.07
2022-09-04T03:35:53.671Z,17.97
2022-09-04T03:38:34.129Z,18.03
2022-09-04T03:41:30.372Z,18.09
2022-09-04T03:44:18.613Z,18.01
2022-09-04T03:47:07.285Z,18.02
2022-09-04T03:50:02.231Z,18.08
2022-09-04T03:52:37.040Z,18.12
2022-09-04T03:55:41.312Z,18.05
2022-09-04T03:58:37.101Z,17.95
2022-09-04T04:01:13.924Z,17.90
2022-09-04T04:03:56.186Z,18.00
2022-09-04T04:06:49.300Z,17.92
2022-09-04T04:09:32.774Z,17.98
2022-09-04T04:12:19.251Z,18.04
2022-09-04T04:15:07.128Z,18.08
2022-09-04T04:17:52.896Z,18.05
2022-09-04T04:20:38.621Z,18.10
2022-09-04T04:23:29.481Z,18.17
2022-09-04T04:26:02.505Z,18.25
2022-09-04T04:29:11.306Z,18.23
2022-09-04T04:32:13.614Z,18.24
2022-09-04T04:34:44.002Z,18.25
2022-09-04T04:37:40.498Z,18.27
2022-09-04T04:40:24.473Z,18.12
2022-09-04T04:42:55.248Z,18.20
2022-09-04T04:46:03.855Z,18.16
2022-09-04T04:49:08.019Z,18.10
2022-09-04T04:51:56.982Z,18.08
2022-09-04T04:54:46.478Z,18.06
2022-09-04T04:57:27.026Z,18.07
2022-09-04T04:59:55.917Z,18.24
2022-09-04T05:02:31.171Z,18.08
2022-09-04T05:05:22.502Z,18.24
2022-09-04T05:08:27.137Z,18.23
2022-09-04T05:11:01.018Z,18.24
2022-09-04T05:13:41.816Z,18.31
2022-09-04T05:16:16.634Z,18.27
2022-09-04T05:19:04.782Z,18.35
2022-09-04T05:21:43.429Z,18.26
2022-09-04T05:24:23.175Z,18.23
2022-09-04T05:26:55.669Z,18.32
2022-09-04T05:29:52.724Z,18.31
2022-09-04T05:32:36.126Z,18.35
2022-09-04T05:35:36.426Z,18.38
2022-09-04T05:38:26.978Z,18.56
2022-09-04T05:41:07.617Z,18.52
2022-09-04T05:43:56.849Z,18.66
2022-09-04T05:46:41.889Z,18.57
2022-09-04T05:49:20.994Z,18.64
2022-09-04T05:52:13.015Z,18.69
2022-09-04T05:54:50.719Z,18.77
2022-09-04T05:57:39.083Z,18.94
2022-09-04T06:00:14.682Z,19.02
2022-09-04T06:02:57.021Z,19.10
2022-09-04T06:05:47.465Z,19.30
2022-09-04T06:08:46.853Z,19.23
2022-09-04T06:11:47.272Z,19.30
2022-09-04T06:14:27.340Z,19.48
2022-09-04T06:16:56.836Z,19.27
2022-09-04T06:19:42.975Z,19.33
2022-09-04T06:22:34.954Z,19.48
2022-09-04T06:25:46.680Z,19.79
2022-09-04T06:28:27.545Z,19.80
2022-09-04T06:31:23.616Z,19.85
2022-09-04T06:34:00.986Z,20.04
2022-09-04T06:36:40.514Z,20.10
2022-09-04T06:39:07.470Z,20.21
2022-09-04T06:41:49.098Z,20.27
2022-09-04T06:44:54.200Z,20.44
2022-09-04T06:47:36.055Z,20.67
2022-09-04T06:50:18.292Z,21.04
2022-09-04T06:53:04.180Z,20.79
2022-09-04T06:55:50.183Z,20.91
2022-09-04T06:58:38.740Z,21.18
2022-09-04T07:01:16.293Z,21.29
2022-09-04T07:03:58.148Z,21.36
2022-09-04T07:06:29.167Z,21.61
2022-09-04T07:09:42.246Z,21.75
2022-09-04T07:12:30.970Z,21.56
2022-09-04T07:15:18.170Z,22.20
2022-09-04T07:18:10.342Z,22.47
2022-09-04T07:20:39.998Z,22.76
2022-09-04T07:23:32.759Z,22.74
2022-09-04T07:26:21.129Z,23.45
2022-09-04T07:29:16.308Z,23.76
2022-09-04T07:32:11.411Z,23.13
2022-09-04T07:34:47.079Z,23.52
2022-09-04T07:37:44.046Z,23.59
2022-09-04T07:40:20.171Z,23.29
2022-09-04T07:42:50.024Z,23.51
2022-09-04T07:45:34.150Z,23.37
2022-09-04T07:48:11.308Z,23.16
2022-09-04T07:51:16.019Z,22.75
2022-09-04T07:53:57.381Z,22.27
2022-09-04T07:56:45.446Z,22.06
2022-09-04T07:59:21.389Z,21.90
2022-09-04T08:02:15.247Z,21.83
2022-09-04T08:05:10.117Z,21.93
2022-09-04T08:07:40.109Z,22.37
2022-09-04T08:10:25.677Z,22.70
2022-09-04T08:13:03.690Z,22.79
2022-09-04T08:15:52.922Z,23.18
2022-09-04T08:18:35.392Z,23.21
2022-09-04T08:21:23.244Z,23.94
2022-09-04T08:23:50.171Z,23.58
2022-09-04T08:26:31.201Z,23.66
2022-09-04T08:29:01.105Z,23.70
2022-09-04T08:31:54.149Z,22.98
2022-09-04T08:34:43.013Z,22.83
2022-09-04T08:37:21.689Z,23.59
2022-09-04T08:40:04.075Z,23.61
2022-09-04T08:43:09.770Z,23.54
2022-09-04T08:45:52.153Z,23.47
2022-09-04T08:48:19.459Z,23.62
2022-09-04T08:51:05.958Z,23.89
2022-09-04T08:54:06.978Z,24.28
2022-09-04T08:56:53.360Z,24.46
2022-09-04T08:59:41.549Z,24.58
2022-09-04T09:02:45.750Z,24.78
2022-09-04T09:05:35.717Z,25.09
2022-09-04T09:08:36.832Z,25.15
2022-09-04T09:11:25.311Z,25.07
2022-09-04T09:14:49.776Z,25.27
2022-09-04T09:17:35.784Z,25.22
2022-09-04T09:20:33.689Z,25.07
2022-09-04T09:23:38.376Z,24.89
2022-09-04T09:26:24.413Z,24.75
2022-09-04T09:29:09.172Z,24.67
2022-09-04T09:32:12.624Z,24.56
2022-09-04T09:35:03.616Z,24.96
2022-09-04T09:38:04.117Z,25.28
2022-09-04T09:41:17.802Z,25.20
2022-09-04T09:44:09.024Z,25.31
2022-09-04T09:46:53.857Z,25.29
2022-09-04T09:49:38.817Z,25.04
2022-09-04T09:52:37.119Z,25.04
2022-09-04T09:55:37.958Z,25.50
2022-09-04T09:58:26.733Z,25.64
2022-09-04T10:01:00.404Z,25.94
2022-09-04T10:03:59.900Z,25.84
2022-09-04T10:07:03.454Z,25.68
2022-09-04T10:10:00.498Z,25.76
2022-09-04T10:12:42.344Z,25.96
2022-09-04T10:15:37.815Z,26.20
2022-09-04T10:18:42.534Z,25.95
2022-09-04T10:21:36.520Z,25.97
2022-09-04T10:24:22.067Z,26.30
2022-09-04T10:27:21.311Z,26.46
2022-09-04T10:30:18.310Z,26.43
2022-09-04T10:33:10.740Z,26.27
2022-09-04T10:35:41.705Z,26.48
2022-09-04T10:38:30.419Z,26.68
2022-09-04T10:41:31.123Z,26.62
2022-09-04T10:44:19.871Z,26.74
2022-09-04T10:47:05.083Z,26.90
2022-09-04T10:49:43.865Z,27.08
2022-09-04T10:52:37.856Z,27.06
2022-09-04T10:55:44.101Z,26.94
2022-09-04T10:58:38.499Z,27.01
2022-09-04T11:01:39.351Z,26.81
2022-09-04T11:04:34.696Z,26.78
2022-09-04T11:07:10.650Z,26.76
2022-09-04T11:09:59.402Z,27.03
2022-09-04T11:12:54.331Z,27.28
2022-09-04T11:15:30.885Z,27.28
2022-09-04T11:18:17.920Z,27.30
2022-09-04T11:21:09.454Z,27.39
2022-09-04T11:24:14.241Z,27.29
2022-09-04T11:27:20.473Z,27.09
2022-09-04T11:30:10.331Z,26.87
2022-09-04T11:33:23.268Z,27.35
2022-09-04T11:35:59.372Z,27.31
2022-09-04T11:38:56.706Z,27.21
2022-09-04T11:42:09.202Z,27.42
2022-09-04T11:45:05.862Z,27.18
2022-09-04T11:47:38.884Z,27.61
2022-09-04T11:50:19.131Z,27.67
2022-09-04T11:53:19.427Z,27.80
2022-09-04T11:55:52.934Z,27.92
2022-09-04T11:58:32.549Z,28.25
2022-09-04T12:01:24.398Z,27.98
2022-09-04T12:04:10.248Z,27.90
2022-09-04T12:06:40.260Z,28.01
2022-09-04T12:09:44.265Z,27.97
2022-09-04T12:12:28.809Z,27.93
2022-09-04T12:14:55.741Z,28.03
2022-09-04T12:17:38.304Z,28.35
2022-09-04T12:20:39.376Z,28.33
2022-09-04T12:23:15.555Z,28.12
2022-09-04T12:26:01.555Z,27.91
2022-09-04T12:29:02.590Z,28.31
2022-09-04T12:32:18.300Z,28.26
2022-09-04T12:35:04.146Z,28.70
2022-09-04T12:37:57.948Z,28.61
2022-09-04T12:40:58.232Z,28.92
2022-09-04T12:43:31.193Z,28.59
2022-09-04T12:48:59.226Z,27.91
2022-09-04T12:51:36.504Z,27.48
2022-09-04T12:54:25.158Z,27.38
2022-09-04T12:57:16.117Z,27.19
2022-09-04T13:00:02.146Z,27.06
2022-09-04T13:02:41.657Z,27.07
2022-09-04T13:05:20.924Z,27.42
2022-09-04T13:08:33.066Z,27.66
2022-09-04T13:11:17.777Z,27.92
2022-09-04T13:13:55.717Z,27.85
2022-09-04T13:16:55.151Z,27.94
2022-09-04T13:19:55.112Z,27.84
2022-09-04T13:22:32.617Z,28.35
2022-09-04T13:25:32.893Z,28.29
2022-09-04T13:28:19.353Z,27.80
2022-09-04T13:31:06.569Z,28.23
2022-09-04T13:34:16.963Z,28.77
2022-09-04T13:37:05.332Z,27.99
2022-09-04T13:40:01.274Z,27.54
2022-09-04T13:42:40.231Z,27.54
2022-09-04T13:45:23.912Z,27.24
2022-09-04T13:48:01.225Z,27.33
2022-09-04T13:50:34.941Z,27.03
2022-09-04T13:53:11.211Z,27.05
2022-09-04T13:55:41.459Z,26.88
2022-09-04T13:58:20.314Z,26.78
2022-09-04T14:00:52.406Z,26.81
2022-09-04T14:03:52.773Z,26.87
2022-09-04T14:06:24.090Z,26.98
2022-09-04T14:09:04.508Z,26.76
2022-09-04T14:11:58.353Z,26.90
2022-09-04T14:14:25.862Z,26.84
2022-09-04T14:16:55.590Z,26.86
2022-09-04T14:19:22.816Z,27.42
2022-09-04T14:22:24.103Z,27.42
2022-09-04T14:25:18.239Z,27.36
2022-09-04T14:27:59.107Z,26.94
2022-09-04T14:30:28.372Z,26.92
2022-09-04T14:33:37.155Z,26.93
2022-09-04T14:36:21.884Z,26.66
2022-09-04T14:39:14.720Z,26.62
2022-09-04T14:41:48.506Z,26.77
2022-09-04T14:44:18.764Z,26.79
2022-09-04T14:47:25.548Z,26.97
2022-09-04T14:49:55.970Z,26.85
2022-09-04T14:52:36.592Z,26.82
2022-09-04T14:55:13.254Z,26.95
2022-09-04T14:58:09.688Z,26.98
2022-09-04T15:01:03.489Z,27.49
2022-09-04T15:03:55.551Z,27.18
2022-09-04T15:07:10.858Z,27.59
2022-09-04T15:09:43.498Z,27.44
2022-09-04T15:12:28.573Z,27.33
2022-09-04T15:15:16.819Z,27.45
2022-09-04T15:17:51.684Z,27.41
2022-09-04T15:20:22.851Z,27.85
2022-09-04T15:22:54.638Z,27.60
2022-09-04T15:25:57.323Z,27.05
2022-09-04T15:28:48.402Z,26.79
2022-09-04T15:31:38.857Z,26.84
2022-09-04T15:34:12.435Z,26.80
2022-09-04T15:36:39.605Z,27.06
2022-09-04T15:39:16.696Z,27.22
2022-09-04T15:41:47.397Z,27.21
2022-09-04T15:44:26.730Z,27.17
2022-09-04T15:47:13.713Z,27.26
2022-09-04T15:50:01.073Z,27.24
2022-09-04T15:52:43.238Z,27.45
2022-09-04T15:55:33.926Z,27.13
2022-09-04T15:58:29.489Z,27.13
2022-09-04T16:01:06.253Z,27.09
2022-09-04T16:03:53.003Z,26.95
2022-09-04T16:06:27.164Z,26.86
2022-09-04T16:09:03.829Z,26.73
2022-09-04T16:11:31.460Z,26.68
2022-09-04T16:13:58.677Z,26.65
2022-09-04T16:17:12.147Z,26.60
2022-09-04T16:20:02.492Z,26.65
2022-09-04T16:22:44.030Z,26.63
2022-09-04T16:25:29.844Z,26.67
2022-09-04T16:28:11.310Z,26.63
2022-09-04T16:30:56.114Z,26.62
2022-09-04T16:33:28.632Z,26.50
2022-09-04T16:36:21.390Z,26.48
2022-09-04T16:39:21.753Z,26.35
2022-09-04T16:42:24.131Z,26.30
2022-09-04T16:45:11.357Z,26.17
2022-09-04T16:47:49.388Z,26.06
2022-09-04T16:50:26.138Z,25.96
2022-09-04T16:53:12.771Z,26.02
2022-09-04T16:55:49.403Z,25.99
2022-09-04T16:58:55.403Z,25.93
2022-09-04T17:01:38.829Z,25.86
2022-09-04T17:04:24.908Z,25.81
2022-09-04T17:07:18.717Z,25.69
2022-09-04T17:09:57.451Z,25.62
2022-09-04T17:13:01.866Z,25.57
2022-09-04T17:15:32.556Z,25.56
2022-09-04T17:18:05.580Z,25.54
2022-09-04T17:24:08.015Z,25.46
2022-09-04T17:28:58.963Z,25.48
2022-09-04T17:29:09.935Z,25.41
2022-09-04T17:29:47.715Z,25.38
2022-09-04T17:34:08.449Z,25.33
2022-09-04T17:40:36.705Z,25.30
2022-09-04T17:40:49.733Z,25.30
2022-09-04T17:41:40.667Z,25.08
2022-09-04T17:44:25.604Z,25.21
2022-09-04T17:47:12.004Z,25.21
2022-09-04T17:49:46.917Z,25.17
2022-09-04T17:52:24.371Z,25.03
2022-09-04T17:54:51.730Z,24.99
2022-09-04T17:57:31.744Z,25.02
2022-09-04T18:00:09.740Z,24.92
2022-09-04T18:02:51.212Z,24.83
2022-09-04T18:05:32.394Z,24.57
2022-09-04T18:08:24.824Z,24.48
2022-09-04T18:10:58.936Z,24.43
2022-09-04T18:13:49.094Z,24.30
2022-09-04T18:16:42.342Z,24.27
2022-09-04T18:19:21.456Z,24.06
2022-09-04T18:22:09.662Z,24.18
2022-09-04T18:25:16.930Z,24.18
2022-09-04T18:28:12.229Z,24.05
2022-09-04T18:36:11.548Z,23.97
2022-09-04T18:37:22.072Z,23.78
2022-09-04T18:37:23.394Z,23.80
2022-09-04T18:39:43.503Z,23.83
2022-09-04T18:50:22.476Z,23.76
2022-09-04T18:50:45.370Z,23.84
2022-09-04T18:50:52.510Z,23.78
2022-09-04T18:51:31.354Z,23.78
2022-09-04T18:54:12.382Z,23.69
2022-09-04T18:56:43.870Z,23.56
2022-09-04T18:59:33.019Z,23.40
2022-09-04T19:02:25.856Z,23.46
2022-09-04T19:05:08.843Z,23.45
2022-09-04T19:07:49.652Z,23.32
2022-09-04T19:10:22.102Z,23.39
2022-09-04T19:12:55.984Z,23.14
2022-09-04T19:15:52.651Z,23.17
2022-09-04T19:18:30.330Z,23.08
2022-09-04T19:21:09.361Z,22.90
2022-09-04T19:24:11.619Z,22.76
2022-09-04T19:27:02.068Z,22.81
2022-09-04T19:29:29.801Z,22.90
2022-09-04T19:32:32.619Z,22.99
2022-09-04T19:35:02.437Z,22.73
2022-09-04T19:38:44.580Z,22.84
2022-09-04T19:46:04.063Z,22.86
2022-09-04T19:46:09.187Z,22.74
2022-09-04T19:46:43.475Z,22.54
2022-09-04T19:51:33.892Z,22.48
2022-09-04T19:53:33.440Z,22.29
2022-09-04T19:55:23.526Z,22.42
2022-09-04T19:58:20.383Z,22.46
2022-09-04T20:00:55.168Z,22.34
2022-09-04T20:03:29.919Z,22.35
2022-09-04T20:06:19.920Z,22.27
2022-09-04T20:08:56.634Z,22.30
2022-09-04T20:11:36.310Z,22.21
2022-09-04T20:14:13.725Z,22.01
2022-09-04T20:17:02.217Z,22.13
2022-09-04T20:19:55.527Z,22.17
2022-09-04T20:22:54.975Z,22.09
2022-09-04T20:25:24.007Z,22.16
2022-09-04T20:27:57.009Z,22.12
2022-09-04T20:30:25.428Z,22.05
2022-09-04T20:33:04.250Z,22.05
2022-09-04T20:35:53.324Z,22.07
2022-09-04T20:38:30.545Z,22.00
2022-09-04T20:41:21.148Z,21.91
2022-09-04T20:44:08.963Z,22.05
2022-09-04T20:52:42.448Z,22.01
2022-09-04T20:52:58.597Z,21.92
2022-09-04T20:53:20.646Z,21.81
2022-09-04T20:56:03.052Z,21.72
2022-09-04T21:03:06.731Z,21.54
2022-09-04T21:03:17.137Z,21.42
2022-09-04T21:05:20.450Z,21.38
2022-09-04T21:08:13.779Z,21.30
2022-09-04T21:11:10.318Z,21.27
2022-09-04T21:14:03.221Z,21.08
2022-09-04T21:20:31.231Z,21.12
2022-09-04T21:23:05.752Z,20.98
2022-09-04T21:26:10.574Z,20.83
2022-09-04T21:29:10.786Z,20.74
2022-09-04T21:31:56.555Z,20.64
2022-09-04T21:34:45.081Z,20.62
2022-09-04T21:37:58.562Z,20.53
2022-09-04T21:40:53.376Z,20.44
2022-09-04T21:43:45.164Z,20.42
2022-09-04T21:46:28.874Z,20.44
2022-09-04T21:49:34.619Z,20.32
2022-09-04T21:52:23.133Z,20.28
2022-09-04T21:56:33.307Z,20.26
2022-09-04T22:02:32.418Z,20.21
2022-09-04T22:02:35.105Z,20.18
2022-09-04T22:04:17.699Z,20.31
2022-09-04T22:09:35.702Z,20.15
2022-09-04T22:13:37.507Z,20.04
2022-09-04T22:13:50.164Z,19.93
2022-09-04T22:16:37.654Z,19.85
2022-09-04T22:19:47.811Z,19.78
2022-09-04T22:22:50.163Z,19.74
2022-09-04T22:25:41.534Z,19.72
2022-09-04T22:28:44.948Z,19.79
2022-09-04T22:31:22.658Z,19.83
2022-09-04T22:34:24.172Z,19.80
2022-09-04T22:37:12.977Z,19.72
2022-09-04T22:39:45.966Z,19.69
2022-09-04T22:42:31.469Z,19.62
2022-09-04T22:45:10.742Z,19.56
2022-09-04T22:48:16.021Z,19.53
2022-09-04T22:51:10.944Z,19.39
2022-09-04T22:54:03.174Z,19.29
2022-09-04T22:56:51.585Z,19.16
2022-09-04T22:59:38.111Z,19.14
2022-09-04T23:05:47.744Z,19.57
2022-09-04T23:13:44.395Z,19.78
2022-09-04T23:13:59.146Z,19.77
2022-09-04T23:14:52.634Z,19.58
2022-09-04T23:19:07.352Z,19.51
2022-09-04T23:26:33.593Z,19.39
2022-09-04T23:26:42.858Z,19.33
2022-09-04T23:27:28.433Z,19.39
2022-09-04T23:30:05.729Z,19.46
2022-09-04T23:32:36.264Z,19.29
2022-09-04T23:35:31.531Z,19.26
2022-09-04T23:38:10.996Z,19.23
2022-09-04T23:40:54.996Z,19.22
2022-09-04T23:43:56.038Z,19.36
2022-09-04T23:46:24.230Z,19.23
2022-09-04T23:49:45.107Z,19.13
2022-09-04T23:52:48.681Z,19.26
2022-09-04T23:55:49.337Z,19.29
2022-09-04T23:59:12.778Z,19.32
